Time;durP1;ratioP1;P1;durP2;ratioP2;P2;SDS_P1;SDS_P2;PMS_P1;PMS_P2;Temp;Humidity;BMP_temperature;BMP_pressure;BME280_temperature;BME280_humidity;BME280_pressure;Samples;Min_cycle;Max_cycle;Signal;HPM_P1;HPM_P2
2022/12/19 00:02:03;;;;;;;3.60;3.40;;;;;;;-1.92;81.63;96420.25;4339858;32;20189;-56
2022/12/19 00:04:29;;;;;;;5.15;4.62;;;;;;;-1.75;81.11;96422.38;4350444;32;20174;-54
2022/12/19 00:06:57;;;;;;;3.30;3.00;;;;;;;-1.68;80.49;96434.63;4346013;32;20291;-56
2022/12/19 00:09:23;;;;;;;3.80;3.60;;;;;;;-1.65;79.79;96435.03;4337645;32;20186;-55
2022/12/19 00:11:48;;;;;;;2.83;2.57;;;;;;;-1.77;80.45;96428.75;4349425;32;20200;-56
2022/12/19 00:14:13;;;;;;;2.47;2.37;;;;;;;-1.85;81.67;96419.28;4343231;32;20194;-56
2022/12/19 00:16:39;;;;;;;4.53;4.13;;;;;;;-1.72;81.11;96400.41;4347195;32;20215;-56
2022/12/19 00:19:04;;;;;;;2.03;1.97;;;;;;;-1.63;80.65;96412.25;4348417;32;20198;-56
2022/12/19 00:21:31;;;;;;;2.63;2.57;;;;;;;-1.60;80.65;96409.28;4347018;32;20216;-57
2022/12/19 00:23:57;;;;;;;2.60;2.50;;;;;;;-1.68;81.84;96400.81;4345852;32;20185;-57
2022/12/19 00:26:28;;;;;;;3.27;3.07;;;;;;;-1.90;81.89;96387.87;4324619;32;20204;-58
2022/12/19 00:28:55;;;;;;;3.05;2.87;;;;;;;-1.76;81.58;96375.75;4339895;32;20193;-56
2022/12/19 00:31:21;;;;;;;3.40;3.20;;;;;;;-2.03;81.88;96371.34;4349492;32;20258;-56
2022/12/19 00:33:48;;;;;;;14.87;3.95;;;;;;;-1.98;82.27;96356.00;4346032;32;20190;-55
2022/12/19 00:36:16;;;;;;;5.05;4.32;;;;;;;-1.85;82.15;96340.47;4341455;32;20224;-58
2022/12/19 00:38:42;;;;;;;4.65;4.35;;;;;;;-1.87;81.51;96337.31;4341359;32;20193;-57
2022/12/19 00:41:10;;;;;;;9.03;3.33;;;;;;;-1.82;81.48;96340.09;4329644;32;20210;-57
2022/12/19 00:43:36;;;;;;;4.93;4.57;;;;;;;-2.09;82.27;96334.75;4342123;32;20200;-58
2022/12/19 00:46:08;;;;;;;3.53;3.33;;;;;;;-1.69;81.68;96350.63;4330744;33;20192;-57
2022/12/19 00:48:33;;;;;;;3.17;2.70;;;;;;;-1.49;80.64;96361.94;4347629;32;20255;-56
2022/12/19 00:51:08;;;;;;;2.10;2.00;;;;;;;-1.37;80.05;96383.00;4351490;32;20204;-55
2022/12/19 00:53:34;;;;;;;5.35;5.05;;;;;;;-1.44;79.47;96418.56;4349539;32;20256;-56
2022/12/19 00:56:05;;;;;;;5.77;3.87;;;;;;;-1.49;80.56;96416.56;4339457;32;20253;-56
2022/12/19 00:58:32;;;;;;;3.60;3.30;;;;;;;-1.97;81.42;96401.81;4332360;32;20207;-56
2022/12/19 01:00:57;;;;;;;3.40;2.05;;;;;;;-2.14;82.47;96396.87;4342449;32;20181;-55
2022/12/19 01:03:24;;;;;;;3.90;3.70;;;;;;;-1.89;82.50;96388.69;4344796;32;20204;-56
2022/12/19 01:05:51;;;;;;;3.62;3.42;;;;;;;-1.98;83.41;96366.41;4342703;32;20256;-54
2022/12/19 01:08:18;;;;;;;3.03;2.92;;;;;;;-1.83;83.08;96367.91;4345546;32;20215;-55
2022/12/19 01:10:47;;;;;;;5.37;5.07;;;;;;;-1.64;81.49;96357.81;4343847;32;20264;-57
2022/12/19 01:13:15;;;;;;;5.90;5.25;;;;;;;-1.96;82.45;96367.03;4342108;32;20207;-56
2022/12/19 01:15:40;;;;;;;4.97;4.57;;;;;;;-1.93;82.51;96367.44;4331073;32;20186;-52
2022/12/19 01:18:09;;;;;;;4.80;3.90;;;;;;;-1.79;82.25;96363.94;4342692;32;20204;-56
2022/12/19 01:20:37;;;;;;;1.90;1.85;;;;;;;-1.73;82.25;96362.38;4318729;33;20219;-55
2022/12/19 01:23:02;;;;;;;3.17;3.00;;;;;;;-1.73;82.43;96365.78;4352382;32;20205;-56
2022/12/19 01:25:28;;;;;;;4.90;4.60;;;;;;;-1.37;81.37;96350.97;4330770;32;20201;-56
2022/12/19 01:27:54;;;;;;;3.93;3.73;;;;;;;-1.52;81.58;96349.31;4345263;32;20189;-56
2022/12/19 01:30:19;;;;;;;7.32;4.22;;;;;;;-1.69;81.34;96342.00;4331959;32;20213;-55
2022/12/19 01:32:44;;;;;;;2.97;2.77;;;;;;;-1.85;82.14;96350.87;4343207;32;20208;-57
2022/12/19 01:35:10;;;;;;;3.30;3.10;;;;;;;-1.70;82.19;96346.41;4341334;32;20228;-57
2022/12/19 01:37:35;;;;;;;2.43;2.33;;;;;;;-1.79;82.25;96340.53;4330278;32;20204;-57
2022/12/19 01:40:02;;;;;;;4.40;3.73;;;;;;;-1.58;81.61;96350.06;4331363;32;20193;-57
2022/12/19 01:42:34;;;;;;;3.53;3.33;;;;;;;-1.58;81.20;96359.66;4326939;32;20189;-57
2022/12/19 01:45:06;;;;;;;2.78;2.67;;;;;;;-1.41;80.52;96366.16;4336645;32;20201;-57
2022/12/19 01:47:34;;;;;;;3.22;3.12;;;;;;;-1.26;80.27;96379.06;4330919;32;20204;-55
2022/12/19 01:50:02;;;;;;;2.85;2.20;;;;;;;-1.18;79.34;96389.28;4324719;32;20236;-57
2022/12/19 01:52:28;;;;;;;3.53;3.33;;;;;;;-1.36;79.65;96386.41;4347706;32;20199;-57
2022/12/19 01:54:54;;;;;;;9.68;4.43;;;;;;;-1.36;79.34;96383.81;4325622;32;20193;-56
2022/12/19 01:57:20;;;;;;;3.40;3.10;;;;;;;-1.55;80.09;96380.91;4341354;32;20227;-56
2022/12/19 01:59:53;;;;;;;2.50;2.40;;;;;;;-1.74;81.19;96389.38;4345967;32;20216;-56
2022/12/19 02:02:36;;;;;;;4.62;4.43;;;;;;;-1.53;80.26;96384.12;4325418;32;20185;-56
2022/12/19 02:05:03;;;;;;;2.85;2.75;;;;;;;-1.43;79.85;96389.75;4332035;32;20197;-58
2022/12/19 02:07:30;;;;;;;1.85;1.85;;;;;;;-1.76;81.40;96386.16;4321565;33;20194;-56
2022/12/19 02:09:56;;;;;;;2.17;2.08;;;;;;;-1.49;80.75;96398.34;4329394;32;20336;-57
2022/12/19 02:12:25;;;;;;;2.28;2.17;;;;;;;-1.64;81.15;96391.62;4340856;32;20240;-56
2022/12/19 02:14:51;;;;;;;3.35;2.35;;;;;;;-1.90;81.86;96394.88;4336325;32;20190;-55
2022/12/19 02:17:39;;;;;;;3.80;3.08;;;;;;;-1.92;82.28;96395.06;4344111;32;20243;-57
2022/12/19 02:20:40;;;;;;;5.05;4.05;;;;;;;-1.81;82.82;96393.72;4338279;32;20190;-57
2022/12/19 02:23:17;;;;;;;1.98;1.98;;;;;;;-1.52;81.39;96401.34;4317912;32;20219;-57
2022/12/19 02:25:58;;;;;;;2.58;2.45;;;;;;;-1.65;81.51;96401.22;4331292;32;20193;-57
2022/12/19 02:28:51;;;;;;;1.92;1.90;;;;;;;-1.58;81.79;96396.06;4343064;32;20281;-56
2022/12/19 02:31:30;;;;;;;9.30;2.62;;;;;;;-1.74;82.39;96397.19;4341215;32;20212;-55
2022/12/19 02:34:15;;;;;;;2.85;2.08;;;;;;;-1.72;83.10;96400.41;4333704;32;20213;-57
2022/12/19 02:36:47;;;;;;;2.62;2.53;;;;;;;-1.44;82.00;96403.75;4326037;32;20205;-57
2022/12/19 02:39:18;;;;;;;2.35;2.25;;;;;;;-1.85;83.33;96410.69;4356859;32;20193;-56
2022/12/19 02:41:53;;;;;;;2.58;2.47;;;;;;;-1.96;84.32;96414.62;4333052;32;20185;-54
2022/12/19 02:44:28;;;;;;;3.25;2.33;;;;;;;-1.97;84.63;96407.81;4340323;32;20261;-55
2022/12/19 02:46:55;;;;;;;2.90;2.70;;;;;;;-1.78;83.49;96396.75;4329001;32;20264;-55
2022/12/19 02:49:20;;;;;;;1.87;1.87;;;;;;;-1.92;83.79;96399.44;4334606;32;20197;-56
2022/12/19 02:51:46;;;;;;;3.10;2.90;;;;;;;-1.91;83.53;96414.06;4342044;32;20207;-55
2022/12/19 02:54:12;;;;;;;2.33;2.23;;;;;;;-1.62;82.00;96431.25;4342067;32;20301;-53
2022/12/19 02:57:10;;;;;;;3.42;3.12;;;;;;;-1.84;82.91;96433.09;4339454;32;20204;-57
2022/12/19 02:59:47;;;;;;;2.70;2.50;;;;;;;-2.16;84.55;96429.22;4312040;32;20204;-59
2022/12/19 03:02:50;;;;;;;2.95;1.90;;;;;;;-1.88;83.92;96426.69;4344266;32;20204;-55
2022/12/19 03:05:49;;;;;;;6.97;3.55;;;;;;;-1.87;83.94;96423.09;4344265;32;20184;-53
2022/12/19 03:08:35;;;;;;;2.17;2.08;;;;;;;-1.66;82.89;96435.25;4327247;33;20197;-57
2022/12/19 03:11:07;;;;;;;3.67;3.47;;;;;;;-1.74;82.33;96447.41;4344892;32;20188;-55
2022/12/19 03:13:35;;;;;;;4.07;2.35;;;;;;;-1.85;82.95;96434.09;4336752;32;20208;-54
2022/12/19 03:16:03;;;;;;;3.17;2.85;;;;;;;-1.88;83.72;96444.88;4327683;32;20206;-56
2022/12/19 03:18:31;;;;;;;4.05;3.60;;;;;;;-1.88;83.83;96429.28;4344929;32;20256;-56
2022/12/19 03:21:14;;;;;;;3.80;3.60;;;;;;;-1.60;83.12;96427.47;4329664;32;20354;-55
2022/12/19 03:23:40;;;;;;;5.50;3.95;;;;;;;-1.37;82.16;96434.22;4342453;32;20231;-55
2022/12/19 03:26:11;;;;;;;3.30;3.20;;;;;;;-1.36;81.37;96435.84;4340018;32;20202;-57
2022/12/19 03:28:51;;;;;;;3.33;3.12;;;;;;;-1.43;81.03;96446.19;4330480;32;20242;-53
2022/12/19 03:31:20;;;;;;;4.28;3.97;;;;;;;-1.36;81.19;96435.84;4338557;32;20197;-53
2022/12/19 03:33:53;;;;;;;4.07;3.67;;;;;;;-1.37;81.84;96435.03;4339799;32;20209;-56
2022/12/19 03:36:23;;;;;;;4.10;3.90;;;;;;;-1.22;81.57;96433.13;4340030;32;20193;-54
2022/12/19 03:38:49;;;;;;;4.85;3.78;;;;;;;-1.43;82.27;96439.19;4332910;32;20211;-56
2022/12/19 03:43:07;;;;;;;4.47;3.90;;;;;;;-1.15;82.06;96440.97;4335893;32;20230;-53
2022/12/19 03:44:06;;;;;;;5.20;3.80;;;;;;;-1.16;81.02;96454.97;4342904;32;20211;-56
2022/12/19 03:46:38;;;;;;;3.35;3.15;;;;;;;-1.36;82.35;96461.88;4338442;32;20224;-57
2022/12/19 03:49:03;;;;;;;3.45;3.25;;;;;;;-1.26;82.46;96470.16;4324058;32;20205;-55
2022/12/19 03:51:39;;;;;;;4.50;4.10;;;;;;;-1.35;82.78;96453.88;4339595;32;20361;-56
2022/12/19 03:54:12;;;;;;;2.70;2.60;;;;;;;-1.42;83.38;96455.59;4316859;33;20256;-56
2022/12/19 03:56:53;;;;;;;2.33;2.22;;;;;;;-1.35;83.15;96440.06;4338570;32;20190;-56
2022/12/19 03:59:40;;;;;;;3.03;2.87;;;;;;;-1.33;83.61;96456.28;4322567;33;20217;-57
2022/12/19 04:02:07;;;;;;;3.22;2.35;;;;;;;-1.51;84.34;96438.56;4326996;32;20198;-65
2022/12/19 04:04:40;;;;;;;3.75;3.45;;;;;;;-1.62;84.77;96458.06;4327449;32;20192;-56
2022/12/19 04:07:07;;;;;;;4.25;4.05;;;;;;;-1.39;84.06;96437.81;4329604;32;20202;-57
2022/12/19 04:09:36;;;;;;;3.37;2.28;;;;;;;-1.16;83.27;96436.75;4326070;32;20186;-54
2022/12/19 04:12:06;;;;;;;3.15;2.10;;;;;;;-1.29;82.96;96421.09;4324006;33;20190;-54
2022/12/19 04:14:35;;;;;;;3.17;2.85;;;;;;;-1.46;83.94;96421.38;4330090;32;20252;-55
2022/12/19 04:17:01;;;;;;;3.92;3.47;;;;;;;-1.46;83.03;96410.97;4338023;32;20232;-57
2022/12/19 04:19:50;;;;;;;2.63;2.50;;;;;;;-1.24;82.90;96468.94;4340175;32;20185;-57
2022/12/19 04:22:25;;;;;;;4.43;2.60;;;;;;;-1.18;83.27;96485.59;4331995;32;20268;-57
2022/12/19 04:24:53;;;;;;;2.85;2.75;;;;;;;-1.52;84.57;96458.56;4326357;32;20200;-57
2022/12/19 04:27:20;;;;;;;3.45;3.20;;;;;;;-1.48;84.40;96462.41;4321855;32;20185;-55
2022/12/19 04:29:48;;;;;;;2.15;2.12;;;;;;;-1.45;85.09;96484.59;4327792;32;20262;-56
2022/12/19 04:32:13;;;;;;;4.15;3.83;;;;;;;-1.33;84.97;96485.72;4324879;32;20252;-55
2022/12/19 04:34:39;;;;;;;3.73;2.60;;;;;;;-1.32;85.12;96465.69;4330205;32;20195;-56
2022/12/19 04:37:05;;;;;;;3.10;2.97;;;;;;;-1.09;83.83;96474.06;4342374;32;20200;-56
2022/12/19 04:39:31;;;;;;;5.37;4.87;;;;;;;-0.99;83.43;96510.94;4337786;32;20235;-57
2022/12/19 04:41:56;;;;;;;4.10;3.90;;;;;;;-1.30;84.54;96468.91;4348091;32;20292;-57
2022/12/19 04:44:21;;;;;;;5.70;5.30;;;;;;;-1.32;85.41;96478.72;4332739;32;20256;-56
2022/12/19 04:46:46;;;;;;;3.47;3.17;;;;;;;-1.43;85.99;96439.19;4323692;32;20189;-56
2022/12/19 04:49:12;;;;;;;3.20;2.90;;;;;;;-1.50;85.63;96451.38;4328385;32;20204;-57
2022/12/19 04:51:37;;;;;;;6.33;5.73;;;;;;;-1.40;85.85;96425.00;4330179;32;20186;-56
2022/12/19 04:54:02;;;;;;;3.17;2.97;;;;;;;-1.52;85.72;96435.16;4326795;32;20232;-57
2022/12/19 04:56:28;;;;;;;3.27;3.07;;;;;;;-1.42;85.86;96446.00;4330545;32;20193;-54
2022/12/19 04:58:57;;;;;;;4.83;4.53;;;;;;;-1.53;86.13;96424.94;4331233;32;20200;-55
2022/12/19 05:01:23;;;;;;;4.37;4.03;;;;;;;-1.48;86.67;96399.97;4326635;32;20200;-56
2022/12/19 05:03:48;;;;;;;5.67;5.27;;;;;;;-1.51;86.30;96421.16;4323739;32;20185;-57
2022/12/19 05:06:14;;;;;;;3.93;3.00;;;;;;;-1.39;86.56;96422.22;4329735;32;20185;-56
2022/12/19 05:08:41;;;;;;;3.17;2.97;;;;;;;-1.08;85.14;96445.22;4320102;32;20211;-56
2022/12/19 05:11:08;;;;;;;5.25;4.75;;;;;;;-0.99;84.23;96451.06;4322006;32;20205;-58
2022/12/19 05:13:34;;;;;;;3.58;3.40;;;;;;;-1.07;84.55;96452.03;4322290;33;20245;-57
2022/12/19 05:16:03;;;;;;;4.77;4.33;;;;;;;-1.32;85.70;96450.09;4324646;33;20183;-57
2022/12/19 05:18:29;;;;;;;3.30;3.00;;;;;;;-1.61;87.04;96438.88;4327608;32;20185;-55
2022/12/19 05:20:54;;;;;;;3.05;2.85;;;;;;;-1.31;86.46;96444.69;4325934;32;20202;-56
2022/12/19 05:23:21;;;;;;;6.20;5.60;;;;;;;-1.06;84.87;96438.03;4327158;32;20278;-56
2022/12/19 05:25:46;;;;;;;4.32;4.03;;;;;;;-0.97;84.71;96432.66;4310855;32;20194;-55
2022/12/19 05:28:12;;;;;;;2.67;2.47;;;;;;;-0.98;84.45;96442.25;4323700;32;20221;-56
2022/12/19 05:30:37;;;;;;;3.37;3.23;;;;;;;-0.94;84.86;96435.66;4324780;33;20235;-57
2022/12/19 05:33:03;;;;;;;3.93;3.73;;;;;;;-0.76;83.85;96427.31;4326063;32;20201;-57
2022/12/19 05:35:28;;;;;;;29.73;5.10;;;;;;;-0.95;83.67;96449.69;4324123;32;20191;-57
2022/12/19 05:37:53;;;;;;;3.90;3.70;;;;;;;-0.72;83.53;96468.44;4314359;32;20204;-58
2022/12/19 05:40:18;;;;;;;5.93;3.27;;;;;;;-0.97;84.04;96469.91;4328492;32;20198;-58
2022/12/19 05:42:44;;;;;;;3.83;3.53;;;;;;;-0.91;84.70;96474.34;4323383;32;20190;-57
2022/12/19 05:45:09;;;;;;;5.07;4.73;;;;;;;-0.65;83.74;96459.84;4328331;32;20217;-57
2022/12/19 05:47:35;;;;;;;4.87;4.37;;;;;;;-0.66;83.35;96453.03;4322748;32;20236;-57
2022/12/19 05:50:02;;;;;;;6.93;6.43;;;;;;;-0.83;84.55;96449.97;4324487;32;20244;-57
2022/12/19 05:52:29;;;;;;;4.82;4.47;;;;;;;-0.86;84.75;96443.34;4325659;32;20257;-56
2022/12/19 05:54:54;;;;;;;5.68;5.12;;;;;;;-0.60;83.68;96442.63;4319237;32;20202;-57
2022/12/19 05:57:20;;;;;;;5.47;5.03;;;;;;;-0.65;84.03;96445.03;4325510;33;20197;-57
2022/12/19 05:59:46;;;;;;;3.67;3.47;;;;;;;-0.83;85.21;96453.34;4325645;32;20194;-55
2022/12/19 06:02:11;;;;;;;5.30;4.90;;;;;;;-0.86;85.80;96445.94;4324358;32;20229;-58
2022/12/19 06:04:36;;;;;;;5.70;5.27;;;;;;;-0.59;85.03;96452.03;4322029;32;20193;-57
2022/12/19 06:07:02;;;;;;;5.17;4.27;;;;;;;-0.53;84.14;96451.25;4322380;33;20182;-55
2022/12/19 06:09:29;;;;;;;3.70;3.47;;;;;;;-0.43;83.62;96449.09;4322411;32;20237;-58
2022/12/19 06:11:55;;;;;;;5.00;4.65;;;;;;;-0.60;84.44;96441.81;4320588;32;20209;-56
2022/12/19 06:14:21;;;;;;;3.75;3.45;;;;;;;-0.72;85.03;96439.78;4323226;32;20288;-58
2022/12/19 06:16:48;;;;;;;3.47;3.15;;;;;;;-0.61;85.12;96445.41;4323570;32;20235;-57
2022/12/19 06:19:13;;;;;;;6.75;4.62;;;;;;;-0.77;85.66;96430.94;4334887;32;20182;-57
2022/12/19 06:21:40;;;;;;;4.80;4.43;;;;;;;-0.98;86.40;96429.25;4316769;32;20197;-56
2022/12/19 06:24:06;;;;;;;5.43;4.85;;;;;;;-0.52;85.26;96431.22;4325780;32;20181;-64
2022/12/19 06:26:32;;;;;;;2.77;2.57;;;;;;;-0.62;85.73;96433.41;4318046;33;20273;-57
2022/12/19 06:28:59;;;;;;;4.53;3.97;;;;;;;-0.28;84.42;96435.91;4335343;32;20186;-57
2022/12/19 06:31:25;;;;;;;3.37;3.28;;;;;;;-0.56;84.96;96449.03;4316538;32;20208;-57
2022/12/19 06:33:53;;;;;;;4.80;4.35;;;;;;;-0.35;84.50;96451.50;4320239;32;20204;-56
2022/12/19 06:36:24;;;;;;;6.28;5.78;;;;;;;-0.22;83.68;96440.34;4325390;32;20208;-56
2022/12/19 06:38:50;;;;;;;3.95;3.75;;;;;;;-0.17;83.17;96448.34;4321207;32;20217;-57
2022/12/19 06:44:04;;;;;;;3.72;3.53;;;;;;;-0.30;83.68;96450.94;4319087;32;20216;-54
2022/12/19 06:46:29;;;;;;;4.28;3.97;;;;;;;-0.26;84.31;96465.19;4316950;32;20185;-58
2022/12/19 06:48:55;;;;;;;3.90;3.67;;;;;;;-0.38;84.52;96451.09;4323841;32;20350;-57
2022/12/19 06:51:21;;;;;;;4.40;4.13;;;;;;;-0.42;85.06;96444.69;4328211;32;20205;-56
2022/12/19 06:53:46;;;;;;;2.90;2.80;;;;;;;-0.09;84.20;96450.78;4325233;32;20232;-57
2022/12/19 06:56:14;;;;;;;3.37;3.27;;;;;;;-0.09;83.69;96442.16;4319664;32;20241;-57
2022/12/19 06:58:39;;;;;;;3.42;3.22;;;;;;;-0.19;84.35;96444.31;4319811;32;20185;-56
2022/12/19 07:01:05;;;;;;;5.20;4.90;;;;;;;-0.09;84.18;96439.53;4327941;32;20212;-55
2022/12/19 07:03:36;;;;;;;2.90;2.80;;;;;;;-0.17;84.19;96437.09;4325811;32;20212;-57
2022/12/19 07:06:02;;;;;;;4.40;4.20;;;;;;;-0.12;84.81;96440.72;4328573;32;20201;-58
2022/12/19 07:08:28;;;;;;;4.03;3.78;;;;;;;-0.19;84.87;96439.91;4326950;32;20194;-58
2022/12/19 07:10:54;;;;;;;3.80;3.60;;;;;;;-0.21;85.34;96444.53;4325570;32;20196;-57
2022/12/19 07:13:21;;;;;;;5.50;5.00;;;;;;;-0.14;85.14;96439.31;4326500;32;20208;-57
2022/12/19 07:15:52;;;;;;;5.10;4.65;;;;;;;-0.11;85.24;96441.53;4301779;33;20212;-57
2022/12/19 07:18:18;;;;;;;5.32;4.93;;;;;;;0.03;85.06;96448.38;4323055;32;20265;-57
2022/12/19 07:20:45;;;;;;;3.17;3.00;;;;;;;0.08;84.71;96439.94;4322366;32;20213;-54
2022/12/19 07:23:17;;;;;;;5.20;4.50;;;;;;;-0.05;85.11;96443.38;4326696;32;20277;-52
2022/12/19 07:25:43;;;;;;;2.53;2.40;;;;;;;1.51;100.00;96436.47;4324579;32;20244;-53
2022/12/19 07:28:13;;;;;;;6.17;5.67;;;;;;;1.98;100.00;96441.22;4309537;32;20280;-57
2022/12/19 07:30:40;;;;;;;5.17;4.83;;;;;;;2.53;100.00;96440.59;4324223;32;20298;-54
2022/12/19 07:33:06;;;;;;;6.70;3.57;;;;;;;2.54;94.36;96443.00;4318330;33;20290;-63
2022/12/19 07:35:33;;;;;;;5.10;4.73;;;;;;;2.75;91.49;96445.25;4319810;32;20274;-52
2022/12/19 07:38:09;;;;;;;5.73;5.10;;;;;;;3.11;87.65;96443.69;4332237;32;20208;-53
2022/12/19 07:40:39;;;;;;;5.10;4.57;;;;;;;3.28;85.42;96444.72;4317911;32;20297;-53
2022/12/19 07:43:31;;;;;;;4.43;3.77;;;;;;;3.29;81.05;96445.50;4328455;32;20303;-57
2022/12/19 07:45:58;;;;;;;9.47;4.07;;;;;;;3.58;83.91;96446.56;4321543;32;20361;-58
2022/12/19 07:48:24;;;;;;;6.10;4.20;;;;;;;3.85;89.42;96444.41;4316083;32;20304;-55
2022/12/19 07:50:51;;;;;;;4.37;4.03;;;;;;;2.80;77.93;96459.50;4303698;32;20305;-56
2022/12/19 07:53:17;;;;;;;10.87;5.33;;;;;;;2.23;77.18;96456.16;4292088;33;20290;-56
2022/12/19 07:55:44;;;;;;;5.07;4.60;;;;;;;2.10;78.14;96461.47;4311652;32;20321;-53
2022/12/19 07:58:12;;;;;;;5.40;5.10;;;;;;;1.25;80.54;96466.91;4295562;32;20294;-54
2022/12/19 08:00:38;;;;;;;4.13;3.83;;;;;;;1.33;81.67;96469.31;4309604;32;20279;-58
2022/12/19 08:03:04;;;;;;;7.20;5.27;;;;;;;1.55;81.02;96461.19;4332727;32;20337;-58
2022/12/19 08:05:33;;;;;;;5.23;4.83;;;;;;;1.45;81.37;96461.62;4318595;33;20321;-60
2022/12/19 08:07:58;;;;;;;4.83;4.43;;;;;;;1.63;81.36;96459.13;4308352;33;20190;-58
2022/12/19 08:10:26;;;;;;;3.93;3.73;;;;;;;1.73;80.87;96458.69;4318209;33;20271;-58
2022/12/19 08:12:52;;;;;;;4.47;4.17;;;;;;;1.49;81.95;96459.38;4322052;32;20212;-57
2022/12/19 08:15:18;;;;;;;3.43;3.23;;;;;;;1.72;82.10;96459.69;4321050;32;20342;-58
2022/12/19 08:17:45;;;;;;;2.93;2.73;;;;;;;1.54;82.17;96467.41;4321084;32;20257;-58
2022/12/19 08:20:12;;;;;;;5.37;4.97;;;;;;;1.70;82.25;96456.47;4314027;32;20294;-58
2022/12/19 08:22:38;;;;;;;4.70;4.10;;;;;;;1.85;81.66;96449.16;4284614;33;20288;-59
2022/12/19 08:25:06;;;;;;;3.40;3.10;;;;;;;1.62;82.68;96456.72;4326645;32;20283;-59
2022/12/19 08:27:33;;;;;;;3.63;3.43;;;;;;;1.59;83.71;96450.09;4330170;32;20213;-56
2022/12/19 08:29:59;;;;;;;3.77;3.57;;;;;;;1.79;82.83;96449.19;4318875;32;20381;-54
2022/12/19 08:32:29;;;;;;;4.10;3.90;;;;;;;1.55;84.16;96446.28;4309309;32;20291;-58
2022/12/19 08:34:55;;;;;;;3.97;3.63;;;;;;;1.71;84.15;96430.12;4320416;32;20279;-57
2022/12/19 08:37:23;;;;;;;3.80;3.50;;;;;;;2.07;82.84;96420.84;4304263;33;20290;-58
2022/12/19 08:39:48;;;;;;;3.83;3.63;;;;;;;2.06;82.72;96412.19;4323373;32;20298;-58
2022/12/19 08:42:15;;;;;;;4.07;3.87;;;;;;;2.44;81.74;96408.66;4330856;32;20305;-54
2022/12/19 08:44:40;;;;;;;3.93;3.63;;;;;;;1.95;82.78;96405.00;4339038;32;20190;-57
2022/12/19 08:47:08;;;;;;;7.03;4.03;;;;;;;2.41;82.06;96398.63;4319075;33;20448;-57
2022/12/19 08:49:35;;;;;;;2.63;2.50;;;;;;;2.12;83.17;96400.06;4312875;32;20214;-54
2022/12/19 08:52:02;;;;;;;3.23;3.10;;;;;;;2.53;81.85;96401.31;4324825;32;20294;-57
2022/12/19 08:54:28;;;;;;;3.63;3.33;;;;;;;2.75;82.13;96400.69;4263494;33;20418;-57
2022/12/19 08:56:54;;;;;;;4.20;3.30;;;;;;;2.81;81.24;96398.25;4301315;32;20281;-58
2022/12/19 08:59:20;;;;;;;2.57;2.37;;;;;;;3.09;80.54;96396.72;4294190;33;20209;-57
2022/12/19 09:01:46;;;;;;;3.87;3.57;;;;;;;3.34;81.53;96401.84;4292432;32;20346;-55
2022/12/19 09:04:13;;;;;;;3.27;3.07;;;;;;;3.16;80.13;96401.88;4294260;32;20318;-53
2022/12/19 09:06:41;;;;;;;2.60;2.50;;;;;;;3.22;80.92;96394.97;4298210;32;20191;-64
2022/12/19 09:09:09;;;;;;;2.03;1.93;;;;;;;3.23;80.38;96384.25;4284797;33;20342;-59
2022/12/19 09:11:38;;;;;;;2.27;2.17;;;;;;;3.25;80.79;96376.97;4316486;32;20354;-55
2022/12/19 09:14:05;;;;;;;4.80;3.50;;;;;;;3.38;80.39;96371.56;4320002;32;20275;-55
2022/12/19 09:16:32;;;;;;;2.23;1.83;;;;;;;3.58;80.58;96367.84;4326189;32;20328;-54
2022/12/19 09:18:57;;;;;;;3.10;2.00;;;;;;;3.41;81.22;96368.50;4299125;33;20389;-52
2022/12/19 09:21:30;;;;;;;3.30;2.83;;;;;;;3.40;81.35;96359.03;4291210;33;20326;-59
2022/12/19 09:23:59;;;;;;;2.17;2.07;;;;;;;3.33;82.15;96355.66;4324554;32;20217;-57
2022/12/19 09:26:30;;;;;;;5.90;1.97;;;;;;;3.75;81.20;96350.44;4324720;32;20389;-56
2022/12/19 09:28:56;;;;;;;5.93;2.90;;;;;;;4.09;79.99;96373.37;4324361;32;20345;-57
2022/12/19 09:31:24;;;;;;;2.90;2.70;;;;;;;4.17;79.27;96374.03;4310982;32;20286;-58
2022/12/19 09:33:49;;;;;;;1.70;1.70;;;;;;;4.05;79.79;96377.47;4314057;32;20301;-58
2022/12/19 09:36:25;;;;;;;2.90;2.70;;;;;;;4.10;79.70;96374.97;4316252;32;20290;-57
2022/12/19 09:38:56;;;;;;;2.63;2.53;;;;;;;4.13;80.09;96379.78;4305625;33;20198;-58
2022/12/19 09:41:53;;;;;;;2.10;2.00;;;;;;;4.25;79.35;96377.16;4284717;33;20290;-58
2022/12/19 09:44:44;;;;;;;2.50;2.40;;;;;;;4.49;78.17;96389.28;4316297;32;20329;-59
2022/12/19 09:47:16;;;;;;;1.13;1.13;;;;;;;4.35;79.26;96389.72;4295040;32;20278;-58
2022/12/19 09:49:44;;;;;;;1.63;1.53;;;;;;;4.13;81.10;96395.53;4308462;32;20409;-58
2022/12/19 09:52:21;;;;;;;2.00;1.90;;;;;;;4.00;82.22;96384.41;4292630;32;20357;-58
2022/12/19 09:55:01;;;;;;;2.17;2.07;;;;;;;3.95;82.37;96390.31;4301508;32;20278;-55
2022/12/19 09:58:03;;;;;;;2.37;2.17;;;;;;;4.00;82.66;96387.84;4333529;32;20369;-55
2022/12/19 10:00:42;;;;;;;1.60;1.57;;;;;;;3.74;82.45;96383.75;4342703;32;20360;-56
2022/12/19 10:03:32;;;;;;;2.83;2.63;;;;;;;3.84;82.56;96380.59;4316981;32;20332;-58
2022/12/19 10:06:13;;;;;;;1.90;1.80;;;;;;;3.93;82.05;96381.91;4334815;32;20371;-58
2022/12/19 10:08:44;;;;;;;2.07;1.97;;;;;;;4.24;81.35;96377.38;4310700;32;20285;-58
2022/12/19 10:11:15;;;;;;;1.53;1.53;;;;;;;4.48;80.36;96371.91;4319206;32;20291;-64
2022/12/19 10:14:05;;;;;;;2.23;2.13;;;;;;;4.21;82.10;96373.37;4320768;32;20373;-58
2022/12/19 10:17:14;;;;;;;2.27;2.17;;;;;;;4.36;81.42;96380.81;4324159;32;20305;-57
2022/12/19 10:19:58;;;;;;;4.77;2.20;;;;;;;4.26;82.79;96380.56;4313263;32;20290;-58
2022/12/19 10:23:06;;;;;;;2.47;1.97;;;;;;;4.12;82.66;96386.03;4325684;32;20336;-58
2022/12/19 10:25:43;;;;;;;1.93;1.87;;;;;;;4.29;82.25;96386.19;4272635;32;20293;-58
2022/12/19 10:28:55;;;;;;;2.23;2.07;;;;;;;4.32;82.54;96387.56;4315006;32;20282;-57
2022/12/19 10:32:00;;;;;;;1.63;1.53;;;;;;;4.42;81.54;96383.31;4315310;32;20290;-57
2022/12/19 10:34:34;;;;;;;1.63;1.57;;;;;;;4.82;80.48;96380.78;4321737;32;20287;-57
2022/12/19 10:37:29;;;;;;;2.73;2.37;;;;;;;4.71;81.07;96376.38;4294971;32;20286;-59
2022/12/19 10:40:25;;;;;;;2.13;2.03;;;;;;;4.51;81.70;96362.78;4323614;32;20286;-58
2022/12/19 10:43:12;;;;;;;1.10;1.10;;;;;;;4.61;81.22;96360.34;4329553;32;20290;-58
2022/12/19 10:45:48;;;;;;;2.03;1.87;;;;;;;5.04;79.98;96349.44;4309548;32;20367;-55
2022/12/19 10:48:22;;;;;;;3.47;2.40;;;;;;;4.98;80.36;96350.37;4327511;32;20329;-56
2022/12/19 10:50:50;;;;;;;1.77;1.67;;;;;;;4.72;81.41;96340.38;4340205;32;20344;-56
2022/12/19 10:53:26;;;;;;;1.07;1.07;;;;;;;4.84;81.36;96333.25;4348080;32;20312;-52
2022/12/19 10:55:59;;;;;;;2.43;2.27;;;;;;;4.95;80.49;96336.91;4349530;32;20284;-58
2022/12/19 10:58:36;;;;;;;2.57;2.13;;;;;;;4.91;80.46;96326.03;4295189;32;20377;-59
2022/12/19 11:01:17;;;;;;;1.90;1.80;;;;;;;5.02;80.27;96319.94;4271888;33;20306;-57
2022/12/19 11:03:50;;;;;;;1.73;1.70;;;;;;;4.91;81.00;96306.84;4320156;32;20286;-58
2022/12/19 11:06:36;;;;;;;2.87;2.73;;;;;;;4.95;81.13;96302.72;4321775;32;20368;-52
2022/12/19 11:09:28;;;;;;;2.20;2.10;;;;;;;4.94;81.35;96301.12;4321390;32;20301;-58
2022/12/19 11:12:14;;;;;;;2.60;2.50;;;;;;;4.93;81.21;96289.81;4328122;32;20338;-58
2022/12/19 11:15:17;;;;;;;3.77;3.47;;;;;;;4.95;81.29;96276.44;4326534;32;20294;-58
2022/12/19 11:17:47;;;;;;;5.47;3.17;;;;;;;5.06;80.93;96272.94;4309829;33;20294;-56
2022/12/19 11:20:21;;;;;;;2.83;2.70;;;;;;;4.88;81.97;96276.56;4280564;32;20291;-57
2022/12/19 11:22:59;;;;;;;2.03;1.93;;;;;;;4.92;82.05;96284.78;4324919;32;20299;-57
2022/12/19 11:25:42;;;;;;;2.50;2.30;;;;;;;4.92;82.24;96296.09;4331322;32;20338;-57
2022/12/19 11:28:37;;;;;;;3.70;3.50;;;;;;;4.98;82.31;96286.50;4340412;32;20290;-57
2022/12/19 11:31:22;;;;;;;3.90;2.77;;;;;;;5.02;82.64;96277.06;4318370;33;20306;-57
2022/12/19 11:34:04;;;;;;;3.13;2.83;;;;;;;4.66;84.12;96283.47;4339015;32;20288;-57
2022/12/19 11:36:46;;;;;;;2.90;2.63;;;;;;;4.61;84.34;96268.41;4347245;32;20277;-57
2022/12/19 11:39:24;;;;;;;3.10;2.90;;;;;;;4.95;83.58;96252.78;4341186;32;20328;-57
2022/12/19 11:42:25;;;;;;;3.00;2.80;;;;;;;4.82;83.93;96257.25;4357662;32;20286;-57
2022/12/19 11:45:21;;;;;;;2.93;2.73;;;;;;;4.83;84.34;96250.16;4291910;32;20321;-57
2022/12/19 11:48:06;;;;;;;2.60;2.50;;;;;;;4.86;84.69;96241.03;4332005;32;20323;-56
2022/12/19 11:50:38;;;;;;;2.67;2.47;;;;;;;4.94;84.17;96248.53;4346241;32;20277;-57
2022/12/19 11:53:18;;;;;;;1.70;1.60;;;;;;;5.10;83.56;96258.31;4333702;32;20277;-57
2022/12/19 11:55:52;;;;;;;2.33;2.23;;;;;;;4.83;84.52;96266.75;4355690;32;20400;-57
2022/12/19 11:58:18;;;;;;;3.27;2.97;;;;;;;4.99;84.56;96256.53;4354593;32;20272;-58
2022/12/19 12:01:09;;;;;;;3.07;2.87;;;;;;;4.84;85.18;96257.81;4355115;32;20316;-57